Terminal Aerodrome Forecast
Issued by NWS

Home | Current Version | Previous Version | Graphics & Text | Print | Product List | Glossary On
Versions: 1 2 3 4 5 6 7 8 9 10 11 12 13 14 15 16 17 18 19 20
000
FTUS43 KICT 012339
TAFCNU
TAF
KCNU 012339Z 0200/0224 01006KT P6SM SCT025
     FM020800 VRB03KT 2SM BR BKN008
     FM021400 10005KT 5SM BR BKN014
     FM021600 12008KT P6SM SCT020 BKN250
     FM022100 15010KT 6SM HZ OVC020=

USA.gov is the U.S. government's official web portal to all federal, state and local government web resources and services.